Tile Shop Hldgs Inc (TTS) Latest Bloomsberg Price


Mffais Ranking #1842 Overall / #12 Industry
Industry: Home Products Stores

Number of Companies: 108 (Ranking #1544 Overall/#12 Industry)
Inflow: $ 41,751 (K) (Ranking #1405 Overall/#11 Industry)
Outflow: $ -50,962 (K)
Mffais Flow: $ -9,211 (K) (Ranking #1842 Overall/#12 Industry)


Receive a FREE weekly executive review of stocks moving into the top 10, taking the top industy spot or moving up within their industry. Sent directly to your Inbox every Saturday. Sign up today and get last week's review immediately sent to you.

We value and respect your privacy. Please read our Terms and Conditions which states our firm commitment to your privacy. Your email address will not be shared with a third party, nor will it be sold or used for purposes other than subscription for the weekly review.

Owner CPOR Shares Action Qty Chg Invested (K) Total Current Value (K)
Tremblant Capital Group 2016-09-30 2,774,048 Added More 857,222 $ 14,735 $ 47,685
Kennedy Capital Management Inc 2016-09-30 712,579 Added More 394,953 $ 6,789 $ 12,249
Dimensional Fund Advisors Lp 2016-09-30 349,162 Added More 209,156 $ 3,595 $ 6,002
Mairs Power Inc 2016-09-30 95,600 New Holding 95,600 $ 1,643 $ 1,643
Arbor Capital Management Llc 2016-06-30 75,447 New Holding 75,447 $ 1,499 $ 1,499
Capital Fund Management S A 2016-09-30 80,700 New Holding 80,700 $ 1,387 $ 1,387
Menta Capital Llc 2016-09-30 124,521 Added More 68,069 $ 1,170 $ 2,140
Sentinel Asset Management Inc 2016-09-30 711,689 Added More 58,135 $ 999 $ 12,233
Malaga Cove Capital Llc 2016-09-30 49,146 New Holding 49,146 $ 844 $ 844
Gotham Asset Management Llc 2016-09-30 41,813 New Holding 41,813 $ 718 $ 718
Capstone Investment Advisors Llc 2016-09-30 36,055 New Holding 36,055 $ 619 $ 619
Td Asset Management Inc 2016-09-30 52,900 Added More 32,700 $ 562 $ 909
Algert Global Llc 2016-09-30 72,266 Added More 32,653 $ 561 $ 1,242
Alps Advisors Inc 2016-09-30 26,310 New Holding 26,310 $ 452 $ 452
Comerica Bank 2016-09-30 69,123 Added More 26,143 $ 449 $ 1,188
Group One Trading L P 2016-09-30 25,872 New Holding 25,872 $ 444 $ 444
Public Sector Pension Investment Board 2016-09-30 23,000 New Holding 23,000 $ 395 $ 395
Skylands Capital Llc 2016-09-30 611,100 Added More 22,000 $ 378 $ 10,504
Legal General Group Plc 2016-09-30 26,159 Added More 21,500 $ 369 $ 449
1st Global Advisors Inc 2016-09-30 20,919 New Holding 20,919 $ 359 $ 359
Kornitzer Capital Management Inc Ks 2016-09-30 82,700 Added More 20,300 $ 348 $ 1,421
Emerald Mutual Fund Advisers Trust 2016-09-30 719,292 Added More 19,480 $ 334 $ 12,364
Chicago Equity Partners Llc 2016-09-30 19,295 New Holding 19,295 $ 331 $ 331
Century Capital Management Llc 2016-09-30 103,276 Added More 17,705 $ 304 $ 1,775
Cubist Systematic Strategies Llc 2016-09-30 17,202 Added More 17,102 $ 293 $ 295
Thrivent Financial For Lutherans 2016-09-30 16,850 New Holding 16,850 $ 289 $ 289
Spot Trading L L C 2016-09-30 15,000 New Holding 15,000 $ 257 $ 257
Blackrock Investment Management Llc 2016-09-30 135,261 Added More 14,045 $ 241 $ 2,325
Texas Permanent School Fund 2016-09-30 13,116 New Holding 13,116 $ 225 $ 225
New York State Teachers Retirement System 2016-09-30 12,502 New Holding 12,502 $ 214 $ 214
Cutler Group Lp 2016-09-30 25,471 Added More 11,619 $ 199 $ 437
Simplex Trading Llc 2016-09-30 10,554 New Holding 10,554 $ 181 $ 181
Summit Securities Group Llc 2016-09-30 20,000 Added More 6,569 $ 112 $ 343
Sg Americas Securities Llc 2016-09-30 6,514 New Holding 6,514 $ 111 $ 111
Mason Street Advisors Llc 2016-09-30 6,478 New Holding 6,478 $ 111 $ 111
Tudor Investment Corp Et Al 2016-09-30 24,200 Added More 4,000 $ 68 $ 415
Nuveen Asset Management Llc 2016-09-30 59,812 Added More 2,617 $ 44 $ 1,028
Teachers Advisors Inc 2016-09-30 55,692 Added More 1,322 $ 22 $ 957
Ls Investment Advisors Llc 2016-09-30 1,229 New Holding 1,229 $ 21 $ 21
Rhumbline Advisers 2016-09-30 31,231 Added More 900 $ 15 $ 536
Lebenthal Asset Management Llc 2016-09-30 855 New Holding 855 $ 14 $ 14
California State Teachers Retirement System 2016-09-30 69,013 Added More 700 $ 12 $ 1,186
Ladenburg Thalmann Financial Services Inc 2016-09-30 677 New Holding 677 $ 11 $ 11
Blackrock Japan Co Ltd 2016-09-30 118 New Holding 118 $ 2 $ 2
American International Group Inc 2016-09-30 18,783 Added More 28 $ 0 $ 322
Tower Research Capital Llc Trc 2016-09-30 23 New Holding 23 $ 0 $ 0
Putnam Investments Llc 2016-09-30 326,724 Added More 2 $ 0 $ 5,616
Ftb Advisors Inc 2016-09-30 252 No Change 0 $ 0 $ 4
Wealthtrust-Arizona Llc 2016-09-30 526 No Change 0 $ 0 $ 9
Parkside Financial Bank Trust 2016-09-30 230 No Change 0 $ 0 $ 3
Zurcher Kantonalbank Zurich Cantonalbank 2016-09-30 724 No Change 0 $ 0 $ 12
Swiss National Bank 2016-09-30 53,100 No Change 0 $ 0 $ 912
Quadrant Capital Group Llc 2016-09-30 302 No Change 0 $ 0 $ 5
Rational Advisors Llc 2016-09-30 7,700 No Change 0 $ 0 $ 132
Nationwide Fund Advisors 2016-09-30 21,289 No Change 0 $ 0 $ 365
Zions Bancorporation 2016-09-30 0 Sold All -3 $ -0 $ 0
Fifth Third Bancorp 2016-09-30 2,550 Sold Some -64 $ -1 $ 43
Finemark National Bank Trust 2016-09-30 129 Sold Some -65 $ -1 $ 2
Msi Financial Services Inc 2016-09-30 100 Sold Some -70 $ -1 $ 1
Advisor Group Inc 2016-09-30 283 Sold Some -95 $ -1 $ 4
Howe Rusling Inc 2016-09-30 0 Sold All -142 $ -2 $ 0
Pnc Financial Services Group Inc 2016-09-30 9,333 Sold Some -194 $ -3 $ 160
Thompson Davis Co Inc 2016-09-30 2,000 Sold Some -500 $ -8 $ 34
Reilly Financial Advisors Llc 2016-09-30 0 Sold All -600 $ -10 $ 0
Strs Ohio 2016-09-30 38,500 Sold Some -1,400 $ -24 $ 661
Acrospire Investment Management Llc 2016-09-30 1,861 Sold Some -2,600 $ -44 $ 31
Northern Trust Corp 2016-09-30 742,568 Sold Some -2,697 $ -46 $ 12,764
Redwood Investments Llc 2016-09-30 288,774 Sold Some -4,011 $ -68 $ 4,964
Creative Planning 2016-09-30 0 Sold All -4,095 $ -70 $ 0
New York State Common Retirement Fund 2016-09-30 67,217 Sold Some -4,316 $ -74 $ 1,155
Teacher Retirement System Of Texas 2016-09-30 0 Sold All -4,679 $ -80 $ 0
Blackrock Inc 2016-09-30 7,106 Sold Some -5,431 $ -93 $ 122
Envestnet Asset Management Inc 2016-09-30 20,549 Sold Some -6,206 $ -106 $ 353
Panagora Asset Management Inc 2016-09-30 7,375 Sold Some -8,167 $ -140 $ 126
Old Mutual Global Investors Uk Ltd 2016-09-30 149 Sold Some -8,495 $ -146 $ 2
Riverbridge Partners Llc 2016-09-30 1,810,189 Sold Some -8,936 $ -153 $ 31,117
Us Bancorp De 2016-09-30 24,086 Sold Some -9,041 $ -155 $ 414
First Mercantile Trust Co 2016-09-30 0 Sold All -10,100 $ -173 $ 0
Emerald Advisers Inc Pa 2016-09-30 602,714 Sold Some -11,000 $ -189 $ 10,360
Walleye Trading Llc 2016-09-30 4,071 Sold Some -11,050 $ -189 $ 69
Bender Robert Associates 2016-09-30 37,619 Sold Some -11,630 $ -199 $ 646
Picton Mahoney Asset Management 2016-09-30 0 Sold All -12,500 $ -214 $ 0
Cavalier Investments Llc 2016-09-30 0 Sold All -14,800 $ -254 $ 0
Gsa Capital Partners Llp 2016-09-30 46,759 Sold Some -20,923 $ -359 $ 803
Navellier Associates Inc 2016-09-30 0 Sold All -22,407 $ -385 $ 0
Boston Advisors Llc 2016-09-30 0 Sold All -25,325 $ -435 $ 0
Cadence Capital Management Llc 2016-09-30 0 Sold All -29,090 $ -500 $ 0
Landscape Capital Management L L C 2016-09-30 0 Sold All -37,400 $ -642 $ 0
Spark Investment Management Llc 2016-09-30 91,900 Sold Some -40,800 $ -701 $ 1,579
Keane Capital Partners Llc 2016-09-30 0 Sold All -43,780 $ -752 $ 0
Pdt Partners Llc 2016-09-30 0 Sold All -46,300 $ -795 $ 0
Zelman Capital Llc 2016-09-30 0 Sold All -47,825 $ -822 $ 0
Parametric Portfolio Associates Llc 2016-09-30 175,613 Sold Some -57,564 $ -989 $ 3,018
Manatuck Hill Partners Llc 2016-09-30 0 Sold All -58,000 $ -997 $ 0
Lebenthal Lisanti Capital Growth Llc 2016-09-30 0 Sold All -64,927 $ -1,116 $ 0
Turner Investments Llc 2016-09-30 0 Sold All -65,000 $ -1,117 $ 0
Peak6 Investments L P 2016-09-30 59,200 Sold Some -82,800 $ -1,423 $ 1,017
Robeco Institutional Asset Management B V 2016-09-30 0 Sold All -83,633 $ -1,437 $ 0
Wall Street Associates 2016-09-30 145,368 Sold Some -84,153 $ -1,446 $ 2,498
Next Century Growth Investors Llc 2016-09-30 0 Sold All -115,898 $ -1,992 $ 0
Bogle Investment Management L P De 2016-09-30 0 Sold All -125,185 $ -2,151 $ 0
Eam Investors Llc 2016-09-30 0 Sold All -140,876 $ -2,421 $ 0
Emerald Acquisition Ltd 2016-09-30 25,282 Sold Some -148,683 $ -2,555 $ 434
Cupps Capital Management Llc 2016-09-30 42,791 Sold Some -151,275 $ -2,600 $ 735
Timpani Capital Management Llc 2016-09-30 0 Sold All -187,813 $ -3,228 $ 0
Sg Capital Management Llc 2016-09-30 0 Sold All -219,746 $ -3,777 $ 0
Driehaus Capital Management Llc 2016-09-30 0 Sold All -428,824 $ -7,371 $ 0
Columbus Circle Investors 2016-09-30 0 Sold All -493,527 $ -8,483 $ 0